Alsager, United Kingdom
Current Conditions -  °F | °C
As of 11:20 AM on Monday 20 Oct 2014 (Local Time) from EGCC Reporting Station
Light Rain Light Rain  
Wind Chill: 54°   Ceiling: 2200
Heat Index: 54°   Visibility: 6mi
Dew Point: 52°   Wind: 9mph
Humidity: 94%   Direction: 250°WSW
Pressure: 29.91"   Gusts: NA
Location:  53.1°N, 2.31°W
Report Text: EGCC 201020Z 25008KT 9000 -RA FEW018 BKN022 12/11 Q1013 RERA NOSIG
Loading
Personal Weather Stations






























Interactive Weather Map
Tropical Storm Tracking
New forecast layout! Learn more

10-Day Weather Forecast

Advertisements
Track Severe Weather on mobile